Gertrude, Kentucky
Current Conditions -  °F | °C
As of 1:55 AM on Friday 28 Nov 2014 (Local Time) from KFGX Reporting Station
Overcast Overcast  
Wind Chill: 21°   Ceiling: 4100
Heat Index: 27°   Visibility: 10mi
Dew Point: 19°   Wind: 6mph
Humidity: 73%   Direction: 280°W
Pressure: 30.38"   Gusts: NA
Location:  38.6516°N, 84.0942°W
Report Text: KFGX 280655Z AUTO 28005KT 10SM OVC041 M03/M07 A3038 RMK AO2 T10271070
Loading
Personal Weather Stations






























Interactive Weather Map New forecast layout! Learn more

10-Day Weather Forecast

Advertisements
Track Severe Weather on mobile